Terminal Aerodrome Forecast
Issued by NWS Sterling, VA

Current Version | Previous Version | Graphics & Text | Print | Product List | Glossary On
Versions: 1 2 3 4 5 6 7 8 9 10 11 12 13 14 15 16
000
FTUS41 KLWX 211121
TAFMRB
TAF
KMRB 211121Z 2112/2212 00000KT P6SM SCT100
     FM211500 17006KT P6SM VCTS BKN050CB
     FM212000 17004KT P6SM BKN090
     FM220500 00000KT P6SM SCT090=

USA.gov is the U.S. government's official web portal to all federal, state and local government web resources and services.